Impacts TAF Board
For situational awareness. Not to be used for flight planning purposes.
IDs:

KPDX - Portland Intl Arpt, OR, US

Issued at 1149 UTC 14 Dec 2019
Updated at 1338 UTC 14 Dec 2019
Potential Impact None Slight Moderate High
Time<<15/02Z 15/03Z 15/04Z 15/05Z 15/06Z 15/07Z 15/08Z 15/09Z 15/10Z 15/11Z 15/12Z 15/13Z 15/14Z>>
Type PRVL PRVL PRVL PRVL PRVL PRVL PRVL PRVL PRVL PRVL
VIS 5 5 5 5 5 5 2 2 2 2
CIG 25 25 25 25 25 25 15 15 15 15
Cover BKN BKN BKN BKN BKN BKN OVC OVC OVC OVC
FltCat MVFR MVFR MVFR MVFR MVFR MVFR IFR IFR IFR IFR
WX BR BR BR BR BR BR BR BR BR BR
WDir VRB VRB VRB VRB VRB VRB VRB VRB VRB VRB
WSpd 3 3 3 3 3 3 3 3 3 3
WGst -- -- -- -- -- -- -- -- -- --
Raw TAF
KPDX 141149Z 1412/1512 18003KT P6SM FEW008 SCT012 BKN040
  TEMPO 1412/1416 2SM BR BKN008 OVC012
  FM141600 VRB03KT P6SM SCT008 OVC015
  FM141900 VRB03KT P6SM VCSH SCT015 BKN025
  FM150200 VRB03KT 5SM BR FEW008 SCT015 BKN025
  FM150800 VRB03KT 2SM BR SCT008 BKN015 OVC025


METAR Board
Radar Display
Forecast Discussion
For situational awareness. Not to be used for flight planning purposes.